Azle, Texas
Current Conditions -  °F | °C
As of 6:52 AM on Wednesday 22 Oct 2014 (Local Time) from KNFW Reporting Station
Clear Clear  
Wind Chill: 63°   Ceiling: Unl
Heat Index: 63°   Visibility: 10mi
Dew Point: 56°   Wind: 0mph
Humidity: 78%   Direction: NA
Pressure: 30.14"   Gusts: NA
Location:  32.88°N, 97.54°W
Report Text: KNFW 221152Z 00000KT 10SM CLR 17/13 A3014 RMK AO2 SLP189 T01720133 10211 20172 53010 CHINO N VISNO N $
Loading
Personal Weather Stations






























Interactive Weather Map
Tropical Storm Tracking
New forecast layout! Learn more

10-Day Weather Forecast

Advertisements
Track Severe Weather on mobile